Jiu Hua San — 9VBK2 — position and weather

sailwx.info

Track history (hours):
 
Tides and Currents Weather Stations Pressure Air Temp Water Temp Dewpoint Dewpoint Depression Visibility Wind Speed Wind Dir Waves Ship Positions

Jiu Hua San

Last reported at 2014-Jul-13 15:28 UTC. Time now 2014-Aug-01 09:55 UTC.
Position S 33°53' E 018°14'.
Warning: this ship's position is 18 days out of date.

Length 333 m; draft 11.5 m.

Type: Ship. MMSI: 565914000.

Date/timePositionNaut miles runAvg speedWind from/ knotsBaromVisibWave heightAir tempDewpointWater temp
2014-Jul-13 15:28S 33°53' E 018°14'0 0.3
2014-Jul-13 14:25S 33°54' E 018°14'5 5.1
2014-Jul-13 13:26S 33°57' E 018°10'1112.0
2014-Jul-13 12:33S 34°08' E 018°09'1414.4
2014-Jul-13 11:33S 34°22' E 018°11'1413.9
2014-Jul-13 10:33S 34°36' E 018°15'1413.5
2014-Jul-13 09:32S 34°44' E 018°28'1313.3
2014-Jul-13 08:33S 34°51' E 018°41'1813.5
2014-Jul-13 07:13S 35°01' E 018°59'913.0
2014-Jul-13 06:32S 35°04' E 019°09'1612.3
2014-Jul-13 05:15S 35°10' E 019°28'5411.2
2014-Jul-13 00:26S 35°22' E 020°32'23210.5
2014-Jul-12 02:23S 34°46' E 025°12'11712.7
2014-Jul-11 17:11S 34°20' E 027°30'  
Track history (hours):
 
Tides and Currents Weather Stations Pressure Air Temp Water Temp Dewpoint Dewpoint Depression Visibility Wind Speed Wind Dir Waves Ship Positions

Jiu Hua San

Last reported at 2014-Jul-13 15:28 UTC. Time now 2014-Aug-01 09:55 UTC.
Position S 33°53' E 018°14'.
Warning: this ship's position is 18 days out of date.

Length 333 m; draft 11.5 m.

Type: Ship. MMSI: 565914000.

Date/timePositionNaut miles runAvg speedWind from/ knotsBaromVisibWave heightAir tempDewpointWater temp
2014-Jul-13 15:28S 33°53' E 018°14'0 0.3
2014-Jul-13 14:25S 33°54' E 018°14'5 5.1
2014-Jul-13 13:26S 33°57' E 018°10'1112.0
2014-Jul-13 12:33S 34°08' E 018°09'1414.4
2014-Jul-13 11:33S 34°22' E 018°11'1413.9
2014-Jul-13 10:33S 34°36' E 018°15'1413.5
2014-Jul-13 09:32S 34°44' E 018°28'1313.3
2014-Jul-13 08:33S 34°51' E 018°41'1813.5
2014-Jul-13 07:13S 35°01' E 018°59'913.0
2014-Jul-13 06:32S 35°04' E 019°09'1612.3
2014-Jul-13 05:15S 35°10' E 019°28'5411.2
2014-Jul-13 00:26S 35°22' E 020°32'23210.5
2014-Jul-12 02:23S 34°46' E 025°12'11712.7
2014-Jul-11 17:11S 34°20' E 027°30'  

Dump ship's entire track history